sensor_id;sensor_type;location;lat;lon;timestamp;P1;durP1;ratioP1;P2;durP2;ratioP2
24867;SDS011;12941;48.698;9.310;2023-08-24T00:00:08;5.4;;;4.7;;
24867;SDS011;12941;48.698;9.310;2023-08-24T00:01:13;5.4;;;4.7;;
24867;SDS011;12941;48.698;9.310;2023-08-24T00:02:13;6.3;;;4.6;;
24867;SDS011;12941;48.698;9.310;2023-08-24T00:03:18;6.3;;;4.6;;
24867;SDS011;12941;48.698;9.310;2023-08-24T00:04:18;6.3;;;4.6;;
24867;SDS011;12941;48.698;9.310;2023-08-24T00:05:23;6.3;;;4.6;;
24867;SDS011;12941;48.698;9.310;2023-08-24T00:06:28;6.3;;;4.6;;
24867;SDS011;12941;48.698;9.310;2023-08-24T00:07:33;7;;;4.9;;
24867;SDS011;12941;48.698;9.310;2023-08-24T00:08:39;7;;;4.9;;
24867;SDS011;12941;48.698;9.310;2023-08-24T00:09:39;7;;;4.9;;
24867;SDS011;12941;48.698;9.310;2023-08-24T00:10:43;7;;;4.9;;
24867;SDS011;12941;48.698;9.310;2023-08-24T00:11:43;7;;;4.9;;
24867;SDS011;12941;48.698;9.310;2023-08-24T00:12:43;5.7;;;4.4;;
24867;SDS011;12941;48.698;9.310;2023-08-24T00:13:49;5.7;;;4.4;;
24867;SDS011;12941;48.698;9.310;2023-08-24T00:14:49;5.7;;;4.4;;
24867;SDS011;12941;48.698;9.310;2023-08-24T00:15:49;5.7;;;4.4;;
24867;SDS011;12941;48.698;9.310;2023-08-24T00:16:53;5.7;;;4.4;;
24867;SDS011;12941;48.698;9.310;2023-08-24T00:17:58;5.3;;;4.5;;
24867;SDS011;12941;48.698;9.310;2023-08-24T00:18:58;5.3;;;4.5;;
24867;SDS011;12941;48.698;9.310;2023-08-24T00:19:58;5.3;;;4.5;;
24867;SDS011;12941;48.698;9.310;2023-08-24T00:20:58;5.3;;;4.5;;
24867;SDS011;12941;48.698;9.310;2023-08-24T00:22:03;5.3;;;4.5;;
24867;SDS011;12941;48.698;9.310;2023-08-24T00:23:03;6;;;4.6;;
24867;SDS011;12941;48.698;9.310;2023-08-24T00:24:03;6;;;4.6;;
24867;SDS011;12941;48.698;9.310;2023-08-24T00:25:03;6;;;4.6;;
24867;SDS011;12941;48.698;9.310;2023-08-24T00:26:09;6;;;4.6;;
24867;SDS011;12941;48.698;9.310;2023-08-24T00:27:09;5;;;4.5;;
24867;SDS011;12941;48.698;9.310;2023-08-24T00:28:13;5;;;4.5;;
24867;SDS011;12941;48.698;9.310;2023-08-24T00:29:19;5;;;4.5;;
24867;SDS011;12941;48.698;9.310;2023-08-24T00:30:19;5;;;4.5;;
24867;SDS011;12941;48.698;9.310;2023-08-24T00:31:24;5;;;4.5;;
24867;SDS011;12941;48.698;9.310;2023-08-24T00:32:23;6.1;;;4.6;;
24867;SDS011;12941;48.698;9.310;2023-08-24T00:33:23;6.1;;;4.6;;
24867;SDS011;12941;48.698;9.310;2023-08-24T00:34:23;6.1;;;4.6;;
24867;SDS011;12941;48.698;9.310;2023-08-24T00:35:29;6.1;;;4.6;;
24867;SDS011;12941;48.698;9.310;2023-08-24T00:36:29;6.1;;;4.6;;
24867;SDS011;12941;48.698;9.310;2023-08-24T00:37:29;5.9;;;4.4;;
24867;SDS011;12941;48.698;9.310;2023-08-24T00:38:33;5.9;;;4.4;;
24867;SDS011;12941;48.698;9.310;2023-08-24T00:39:39;5.9;;;4.4;;
24867;SDS011;12941;48.698;9.310;2023-08-24T00:40:40;5.9;;;4.4;;
24867;SDS011;12941;48.698;9.310;2023-08-24T00:41:39;5.9;;;4.4;;
24867;SDS011;12941;48.698;9.310;2023-08-24T00:42:44;5.1;;;4.6;;
24867;SDS011;12941;48.698;9.310;2023-08-24T00:43:49;5.1;;;4.6;;
24867;SDS011;12941;48.698;9.310;2023-08-24T00:44:53;5.1;;;4.6;;
24867;SDS011;12941;48.698;9.310;2023-08-24T00:45:53;5.1;;;4.6;;
24867;SDS011;12941;48.698;9.310;2023-08-24T00:46:53;5.1;;;4.6;;
24867;SDS011;12941;48.698;9.310;2023-08-24T00:47:53;5.2;;;4.6;;
24867;SDS011;12941;48.698;9.310;2023-08-24T00:48:59;5.2;;;4.6;;
24867;SDS011;12941;48.698;9.310;2023-08-24T00:50:04;5.2;;;4.6;;
24867;SDS011;12941;48.698;9.310;2023-08-24T00:51:09;5.2;;;4.6;;
24867;SDS011;12941;48.698;9.310;2023-08-24T00:52:09;5.5;;;4.2;;
24867;SDS011;12941;48.698;9.310;2023-08-24T00:53:13;5.6;;;4.1;;
24867;SDS011;12941;48.698;9.310;2023-08-24T00:54:14;5.6;;;4.1;;
24867;SDS011;12941;48.698;9.310;2023-08-24T00:55:19;5.6;;;4.1;;
24867;SDS011;12941;48.698;9.310;2023-08-24T00:56:19;5.6;;;4.1;;
24867;SDS011;12941;48.698;9.310;2023-08-24T00:57:19;6;;;4.5;;
24867;SDS011;12941;48.698;9.310;2023-08-24T00:58:19;6;;;4.5;;
24867;SDS011;12941;48.698;9.310;2023-08-24T00:59:24;6;;;4.5;;
24867;SDS011;12941;48.698;9.310;2023-08-24T01:00:24;6;;;4.5;;
24867;SDS011;12941;48.698;9.310;2023-08-24T01:01:24;6;;;4.5;;
24867;SDS011;12941;48.698;9.310;2023-08-24T01:02:29;5.3;;;4.8;;
24867;SDS011;12941;48.698;9.310;2023-08-24T01:03:29;5.3;;;4.8;;
24867;SDS011;12941;48.698;9.310;2023-08-24T01:04:29;5.3;;;4.8;;
24867;SDS011;12941;48.698;9.310;2023-08-24T01:05:34;5.3;;;4.8;;
24867;SDS011;12941;48.698;9.310;2023-08-24T01:06:34;5.3;;;4.8;;
24867;SDS011;12941;48.698;9.310;2023-08-24T01:07:39;5.7;;;4.9;;
24867;SDS011;12941;48.698;9.310;2023-08-24T01:08:39;5.7;;;4.9;;
24867;SDS011;12941;48.698;9.310;2023-08-24T01:09:44;5.7;;;4.9;;
24867;SDS011;12941;48.698;9.310;2023-08-24T01:10:45;5.7;;;4.9;;
24867;SDS011;12941;48.698;9.310;2023-08-24T01:11:45;5.7;;;4.9;;
24867;SDS011;12941;48.698;9.310;2023-08-24T01:12:52;8.1;;;4.8;;
24867;SDS011;12941;48.698;9.310;2023-08-24T01:13:55;8.1;;;4.8;;
24867;SDS011;12941;48.698;9.310;2023-08-24T01:14:55;8.1;;;4.8;;
24867;SDS011;12941;48.698;9.310;2023-08-24T01:16:00;8.1;;;4.8;;
24867;SDS011;12941;48.698;9.310;2023-08-24T01:16:59;8.1;;;4.8;;
24867;SDS011;12941;48.698;9.310;2023-08-24T01:18:04;5.7;;;5;;
24867;SDS011;12941;48.698;9.310;2023-08-24T01:19:10;5.7;;;5;;
24867;SDS011;12941;48.698;9.310;2023-08-24T01:20:14;5.7;;;5;;
24867;SDS011;12941;48.698;9.310;2023-08-24T01:21:14;5.7;;;5;;
24867;SDS011;12941;48.698;9.310;2023-08-24T01:22:22;5.8;;;4.7;;
24867;SDS011;12941;48.698;9.310;2023-08-24T01:23:25;5.8;;;4.7;;
24867;SDS011;12941;48.698;9.310;2023-08-24T01:24:26;5.8;;;4.7;;
24867;SDS011;12941;48.698;9.310;2023-08-24T01:25:29;5.8;;;4.7;;
24867;SDS011;12941;48.698;9.310;2023-08-24T01:26:29;5.8;;;4.7;;
24867;SDS011;12941;48.698;9.310;2023-08-24T01:27:29;6.8;;;4.5;;
24867;SDS011;12941;48.698;9.310;2023-08-24T01:28:29;6.8;;;4.5;;
24867;SDS011;12941;48.698;9.310;2023-08-24T01:29:29;6.8;;;4.5;;
24867;SDS011;12941;48.698;9.310;2023-08-24T01:30:34;6.8;;;4.5;;
24867;SDS011;12941;48.698;9.310;2023-08-24T01:31:39;6.8;;;4.5;;
24867;SDS011;12941;48.698;9.310;2023-08-24T01:32:39;5.3;;;4.8;;
24867;SDS011;12941;48.698;9.310;2023-08-24T01:33:39;5.3;;;4.8;;
24867;SDS011;12941;48.698;9.310;2023-08-24T01:34:44;5.3;;;4.8;;
24867;SDS011;12941;48.698;9.310;2023-08-24T01:35:44;5.3;;;4.8;;
24867;SDS011;12941;48.698;9.310;2023-08-24T01:36:44;5.3;;;4.8;;
24867;SDS011;12941;48.698;9.310;2023-08-24T01:37:44;6.2;;;5;;
24867;SDS011;12941;48.698;9.310;2023-08-24T01:38:52;6.2;;;5;;
24867;SDS011;12941;48.698;9.310;2023-08-24T01:39:50;6.2;;;5;;
24867;SDS011;12941;48.698;9.310;2023-08-24T01:40:55;6.2;;;5;;
24867;SDS011;12941;48.698;9.310;2023-08-24T01:42:00;6.2;;;5;;
24867;SDS011;12941;48.698;9.310;2023-08-24T01:43:01;7.6;;;5.2;;
24867;SDS011;12941;48.698;9.310;2023-08-24T01:44:04;7.6;;;5.2;;
24867;SDS011;12941;48.698;9.310;2023-08-24T01:45:04;7.6;;;5.2;;
24867;SDS011;12941;48.698;9.310;2023-08-24T01:46:05;7.6;;;5.2;;
24867;SDS011;12941;48.698;9.310;2023-08-24T01:47:09;7.3;;;5.2;;
24867;SDS011;12941;48.698;9.310;2023-08-24T01:48:09;6.9;;;5.1;;
24867;SDS011;12941;48.698;9.310;2023-08-24T01:49:15;6.9;;;5.1;;
24867;SDS011;12941;48.698;9.310;2023-08-24T01:50:14;6.9;;;5.1;;
24867;SDS011;12941;48.698;9.310;2023-08-24T01:51:19;6.9;;;5.1;;
24867;SDS011;12941;48.698;9.310;2023-08-24T01:52:24;7.7;;;5.1;;
24867;SDS011;12941;48.698;9.310;2023-08-24T01:53:24;7.7;;;5.1;;
24867;SDS011;12941;48.698;9.310;2023-08-24T01:54:24;7.7;;;5.1;;
24867;SDS011;12941;48.698;9.310;2023-08-24T01:55:24;7.7;;;5.1;;
24867;SDS011;12941;48.698;9.310;2023-08-24T01:56:29;7.7;;;5.1;;
24867;SDS011;12941;48.698;9.310;2023-08-24T01:57:29;6;;;5.4;;
24867;SDS011;12941;48.698;9.310;2023-08-24T01:58:34;6;;;5.4;;
24867;SDS011;12941;48.698;9.310;2023-08-24T01:59:39;6;;;5.4;;
24867;SDS011;12941;48.698;9.310;2023-08-24T02:00:39;6;;;5.4;;
24867;SDS011;12941;48.698;9.310;2023-08-24T02:01:45;6;;;5.4;;
24867;SDS011;12941;48.698;9.310;2023-08-24T02:02:45;6.8;;;5.5;;
24867;SDS011;12941;48.698;9.310;2023-08-24T02:03:49;6.8;;;5.5;;
24867;SDS011;12941;48.698;9.310;2023-08-24T02:04:55;6.8;;;5.5;;
24867;SDS011;12941;48.698;9.310;2023-08-24T02:05:55;6.8;;;5.5;;
24867;SDS011;12941;48.698;9.310;2023-08-24T02:06:59;6.8;;;5.5;;
24867;SDS011;12941;48.698;9.310;2023-08-24T02:07:59;6;;;4.6;;
24867;SDS011;12941;48.698;9.310;2023-08-24T02:09:05;6;;;4.6;;
24867;SDS011;12941;48.698;9.310;2023-08-24T02:10:05;6;;;4.6;;
24867;SDS011;12941;48.698;9.310;2023-08-24T02:11:05;6;;;4.6;;
24867;SDS011;12941;48.698;9.310;2023-08-24T02:12:09;5;;;4.5;;
24867;SDS011;12941;48.698;9.310;2023-08-24T02:13:09;5;;;4.5;;
24867;SDS011;12941;48.698;9.310;2023-08-24T02:14:15;5;;;4.5;;
24867;SDS011;12941;48.698;9.310;2023-08-24T02:15:19;5;;;4.5;;
24867;SDS011;12941;48.698;9.310;2023-08-24T02:16:19;5;;;4.5;;
24867;SDS011;12941;48.698;9.310;2023-08-24T02:17:25;5.6;;;5;;
24867;SDS011;12941;48.698;9.310;2023-08-24T02:18:25;5.6;;;5;;
24867;SDS011;12941;48.698;9.310;2023-08-24T02:19:29;5.6;;;5;;
24867;SDS011;12941;48.698;9.310;2023-08-24T02:20:35;5.6;;;5;;
24867;SDS011;12941;48.698;9.310;2023-08-24T02:21:35;5.6;;;5;;
24867;SDS011;12941;48.698;9.310;2023-08-24T02:22:40;6.1;;;4.7;;
24867;SDS011;12941;48.698;9.310;2023-08-24T02:23:45;6.1;;;4.7;;
24867;SDS011;12941;48.698;9.310;2023-08-24T02:24:45;6.1;;;4.7;;
24867;SDS011;12941;48.698;9.310;2023-08-24T02:25:45;6.1;;;4.7;;
24867;SDS011;12941;48.698;9.310;2023-08-24T02:26:50;6.1;;;4.7;;
24867;SDS011;12941;48.698;9.310;2023-08-24T02:27:50;5.3;;;4.8;;
24867;SDS011;12941;48.698;9.310;2023-08-24T02:28:56;5.3;;;4.8;;
24867;SDS011;12941;48.698;9.310;2023-08-24T02:29:55;5.3;;;4.8;;
24867;SDS011;12941;48.698;9.310;2023-08-24T02:31:00;5.3;;;4.8;;
24867;SDS011;12941;48.698;9.310;2023-08-24T02:32:05;5.3;;;4.8;;
24867;SDS011;12941;48.698;9.310;2023-08-24T02:33:10;6.4;;;5;;
24867;SDS011;12941;48.698;9.310;2023-08-24T02:34:10;6.4;;;5;;
24867;SDS011;12941;48.698;9.310;2023-08-24T02:35:10;6.4;;;5;;
24867;SDS011;12941;48.698;9.310;2023-08-24T02:36:15;6.4;;;5;;
24867;SDS011;12941;48.698;9.310;2023-08-24T02:37:15;5.7;;;4.4;;
24867;SDS011;12941;48.698;9.310;2023-08-24T02:38:20;5.7;;;4.4;;
24867;SDS011;12941;48.698;9.310;2023-08-24T02:39:20;5.7;;;4.4;;
24867;SDS011;12941;48.698;9.310;2023-08-24T02:40:25;5.7;;;4.4;;
24867;SDS011;12941;48.698;9.310;2023-08-24T02:41:25;5.7;;;4.4;;
24867;SDS011;12941;48.698;9.310;2023-08-24T02:42:25;5.4;;;4.9;;
24867;SDS011;12941;48.698;9.310;2023-08-24T02:43:30;5.4;;;4.9;;
24867;SDS011;12941;48.698;9.310;2023-08-24T02:44:30;5.4;;;4.9;;
24867;SDS011;12941;48.698;9.310;2023-08-24T02:45:30;5.4;;;4.9;;
24867;SDS011;12941;48.698;9.310;2023-08-24T02:46:35;5.4;;;4.9;;
24867;SDS011;12941;48.698;9.310;2023-08-24T02:47:35;7;;;4.9;;
24867;SDS011;12941;48.698;9.310;2023-08-24T02:48:35;7;;;4.9;;
24867;SDS011;12941;48.698;9.310;2023-08-24T02:49:40;7;;;4.9;;
24867;SDS011;12941;48.698;9.310;2023-08-24T02:50:40;7;;;4.9;;
24867;SDS011;12941;48.698;9.310;2023-08-24T02:51:45;7;;;4.9;;
24867;SDS011;12941;48.698;9.310;2023-08-24T02:52:50;5.5;;;4.9;;
24867;SDS011;12941;48.698;9.310;2023-08-24T02:53:50;5.5;;;4.9;;
24867;SDS011;12941;48.698;9.310;2023-08-24T02:54:50;5.5;;;4.9;;
24867;SDS011;12941;48.698;9.310;2023-08-24T02:55:50;5.5;;;4.9;;
24867;SDS011;12941;48.698;9.310;2023-08-24T02:56:55;5.5;;;4.9;;
24867;SDS011;12941;48.698;9.310;2023-08-24T02:57:55;5.6;;;4.7;;
24867;SDS011;12941;48.698;9.310;2023-08-24T02:59:00;5.6;;;4.7;;
24867;SDS011;12941;48.698;9.310;2023-08-24T03:00:00;5.6;;;4.7;;
24867;SDS011;12941;48.698;9.310;2023-08-24T03:01:05;5.6;;;4.7;;
24867;SDS011;12941;48.698;9.310;2023-08-24T03:02:09;6.4;;;5.7;;
24867;SDS011;12941;48.698;9.310;2023-08-24T03:03:10;6.3;;;5.6;;
24867;SDS011;12941;48.698;9.310;2023-08-24T03:04:10;6.3;;;5.6;;
24867;SDS011;12941;48.698;9.310;2023-08-24T03:05:15;6.3;;;5.6;;
24867;SDS011;12941;48.698;9.310;2023-08-24T03:06:15;6.3;;;5.6;;
24867;SDS011;12941;48.698;9.310;2023-08-24T03:07:15;8.4;;;5.5;;
24867;SDS011;12941;48.698;9.310;2023-08-24T03:08:20;8.4;;;5.5;;
24867;SDS011;12941;48.698;9.310;2023-08-24T03:09:20;8.4;;;5.5;;
24867;SDS011;12941;48.698;9.310;2023-08-24T03:10:20;8.4;;;5.5;;
24867;SDS011;12941;48.698;9.310;2023-08-24T03:11:25;8.4;;;5.5;;
24867;SDS011;12941;48.698;9.310;2023-08-24T03:12:25;7.8;;;5.4;;
24867;SDS011;12941;48.698;9.310;2023-08-24T03:13:25;7.8;;;5.4;;
24867;SDS011;12941;48.698;9.310;2023-08-24T03:14:25;7.8;;;5.4;;
24867;SDS011;12941;48.698;9.310;2023-08-24T03:15:25;7.8;;;5.4;;
24867;SDS011;12941;48.698;9.310;2023-08-24T03:16:30;7.8;;;5.4;;
24867;SDS011;12941;48.698;9.310;2023-08-24T03:17:35;6.4;;;5.3;;
24867;SDS011;12941;48.698;9.310;2023-08-24T03:18:35;6.4;;;5.3;;
24867;SDS011;12941;48.698;9.310;2023-08-24T03:19:35;6.4;;;5.3;;
24867;SDS011;12941;48.698;9.310;2023-08-24T03:20:40;6.4;;;5.3;;
24867;SDS011;12941;48.698;9.310;2023-08-24T03:21:45;6.4;;;5.3;;
24867;SDS011;12941;48.698;9.310;2023-08-24T03:22:45;6.7;;;5.5;;
24867;SDS011;12941;48.698;9.310;2023-08-24T03:23:50;6.7;;;5.5;;
24867;SDS011;12941;48.698;9.310;2023-08-24T03:24:55;6.7;;;5.5;;
24867;SDS011;12941;48.698;9.310;2023-08-24T03:25:55;6.7;;;5.5;;
24867;SDS011;12941;48.698;9.310;2023-08-24T03:27:00;6.7;;;5.5;;
24867;SDS011;12941;48.698;9.310;2023-08-24T03:28:00;6.3;;;5;;
24867;SDS011;12941;48.698;9.310;2023-08-24T03:29:00;6.3;;;5;;
24867;SDS011;12941;48.698;9.310;2023-08-24T03:30:06;6.3;;;5;;
24867;SDS011;12941;48.698;9.310;2023-08-24T03:31:06;6.3;;;5;;
24867;SDS011;12941;48.698;9.310;2023-08-24T03:32:10;7.1;;;5.4;;
24867;SDS011;12941;48.698;9.310;2023-08-24T03:33:10;7.1;;;5.4;;
24867;SDS011;12941;48.698;9.310;2023-08-24T03:34:15;7.1;;;5.4;;
24867;SDS011;12941;48.698;9.310;2023-08-24T03:35:15;7.1;;;5.4;;
24867;SDS011;12941;48.698;9.310;2023-08-24T03:36:20;7.1;;;5.4;;
24867;SDS011;12941;48.698;9.310;2023-08-24T03:37:20;6;;;5.4;;
24867;SDS011;12941;48.698;9.310;2023-08-24T03:38:21;6;;;5.4;;
24867;SDS011;12941;48.698;9.310;2023-08-24T03:39:20;6;;;5.4;;
24867;SDS011;12941;48.698;9.310;2023-08-24T03:40:21;6;;;5.4;;
24867;SDS011;12941;48.698;9.310;2023-08-24T03:41:25;6;;;5.4;;
24867;SDS011;12941;48.698;9.310;2023-08-24T03:42:31;6.4;;;5.1;;
24867;SDS011;12941;48.698;9.310;2023-08-24T03:43:31;6.4;;;5.1;;
24867;SDS011;12941;48.698;9.310;2023-08-24T03:44:35;6.4;;;5.1;;
24867;SDS011;12941;48.698;9.310;2023-08-24T03:45:41;6.4;;;5.1;;
24867;SDS011;12941;48.698;9.310;2023-08-24T03:46:41;6.4;;;5.1;;
24867;SDS011;12941;48.698;9.310;2023-08-24T03:47:45;6.1;;;5.4;;
24867;SDS011;12941;48.698;9.310;2023-08-24T03:48:45;6.1;;;5.4;;
24867;SDS011;12941;48.698;9.310;2023-08-24T03:49:51;6.1;;;5.4;;
24867;SDS011;12941;48.698;9.310;2023-08-24T03:50:56;6.1;;;5.4;;
24867;SDS011;12941;48.698;9.310;2023-08-24T03:51:55;6.1;;;5.4;;
24867;SDS011;12941;48.698;9.310;2023-08-24T03:52:56;6.4;;;5.5;;
24867;SDS011;12941;48.698;9.310;2023-08-24T03:54:01;6.4;;;5.5;;
24867;SDS011;12941;48.698;9.310;2023-08-24T03:55:01;6.4;;;5.5;;
24867;SDS011;12941;48.698;9.310;2023-08-24T03:56:06;6.4;;;5.5;;
24867;SDS011;12941;48.698;9.310;2023-08-24T03:57:06;6.8;;;5.6;;
24867;SDS011;12941;48.698;9.310;2023-08-24T03:58:06;7;;;5.6;;
24867;SDS011;12941;48.698;9.310;2023-08-24T03:59:06;7;;;5.6;;
24867;SDS011;12941;48.698;9.310;2023-08-24T04:00:06;7;;;5.6;;
24867;SDS011;12941;48.698;9.310;2023-08-24T04:01:11;7;;;5.6;;
24867;SDS011;12941;48.698;9.310;2023-08-24T04:02:11;5.4;;;4.9;;
24867;SDS011;12941;48.698;9.310;2023-08-24T04:03:16;5.4;;;4.9;;
24867;SDS011;12941;48.698;9.310;2023-08-24T04:04:21;5.4;;;4.9;;
24867;SDS011;12941;48.698;9.310;2023-08-24T04:05:26;5.4;;;4.9;;
24867;SDS011;12941;48.698;9.310;2023-08-24T04:06:31;5.4;;;4.9;;
24867;SDS011;12941;48.698;9.310;2023-08-24T04:07:31;5.8;;;5.2;;
24867;SDS011;12941;48.698;9.310;2023-08-24T04:08:31;5.8;;;5.2;;
24867;SDS011;12941;48.698;9.310;2023-08-24T04:09:36;5.8;;;5.2;;
24867;SDS011;12941;48.698;9.310;2023-08-24T04:10:37;5.8;;;5.2;;
24867;SDS011;12941;48.698;9.310;2023-08-24T04:11:41;5.8;;;5.2;;
24867;SDS011;12941;48.698;9.310;2023-08-24T04:12:46;6.1;;;5.4;;
24867;SDS011;12941;48.698;9.310;2023-08-24T04:13:46;6.1;;;5.4;;
24867;SDS011;12941;48.698;9.310;2023-08-24T04:14:51;6.1;;;5.4;;
24867;SDS011;12941;48.698;9.310;2023-08-24T04:15:51;6.1;;;5.4;;
24867;SDS011;12941;48.698;9.310;2023-08-24T04:16:56;6.1;;;5.4;;
24867;SDS011;12941;48.698;9.310;2023-08-24T04:17:56;6.2;;;5.1;;
24867;SDS011;12941;48.698;9.310;2023-08-24T04:18:56;6.2;;;5.1;;
24867;SDS011;12941;48.698;9.310;2023-08-24T04:19:56;6.2;;;5.1;;
24867;SDS011;12941;48.698;9.310;2023-08-24T04:21:01;6.2;;;5.1;;
24867;SDS011;12941;48.698;9.310;2023-08-24T04:22:06;7.4;;;5.5;;
24867;SDS011;12941;48.698;9.310;2023-08-24T04:23:12;7.3;;;5.5;;
24867;SDS011;12941;48.698;9.310;2023-08-24T04:24:16;7.3;;;5.5;;
24867;SDS011;12941;48.698;9.310;2023-08-24T04:25:16;7.3;;;5.5;;
24867;SDS011;12941;48.698;9.310;2023-08-24T04:26:21;7.3;;;5.5;;
24867;SDS011;12941;48.698;9.310;2023-08-24T04:27:21;6.4;;;5.7;;
24867;SDS011;12941;48.698;9.310;2023-08-24T04:28:21;6.4;;;5.7;;
24867;SDS011;12941;48.698;9.310;2023-08-24T04:29:26;6.4;;;5.7;;
24867;SDS011;12941;48.698;9.310;2023-08-24T04:30:31;6.4;;;5.7;;
24867;SDS011;12941;48.698;9.310;2023-08-24T04:31:36;6.4;;;5.7;;
24867;SDS011;12941;48.698;9.310;2023-08-24T04:32:36;6.4;;;5.6;;
24867;SDS011;12941;48.698;9.310;2023-08-24T04:33:41;6.4;;;5.6;;
24867;SDS011;12941;48.698;9.310;2023-08-24T04:34:41;6.4;;;5.6;;
24867;SDS011;12941;48.698;9.310;2023-08-24T04:35:41;6.4;;;5.6;;
24867;SDS011;12941;48.698;9.310;2023-08-24T04:36:46;6.4;;;5.6;;
24867;SDS011;12941;48.698;9.310;2023-08-24T04:37:46;7;;;5.9;;
24867;SDS011;12941;48.698;9.310;2023-08-24T04:38:51;7;;;5.9;;
24867;SDS011;12941;48.698;9.310;2023-08-24T04:39:56;7;;;5.9;;
24867;SDS011;12941;48.698;9.310;2023-08-24T04:40:56;7;;;5.9;;
24867;SDS011;12941;48.698;9.310;2023-08-24T04:42:01;7;;;5.9;;
24867;SDS011;12941;48.698;9.310;2023-08-24T04:43:06;6.3;;;5.7;;
24867;SDS011;12941;48.698;9.310;2023-08-24T04:44:11;6.3;;;5.7;;
24867;SDS011;12941;48.698;9.310;2023-08-24T04:45:16;6.3;;;5.7;;
24867;SDS011;12941;48.698;9.310;2023-08-24T04:46:21;6.3;;;5.7;;
24867;SDS011;12941;48.698;9.310;2023-08-24T04:47:26;7.7;;;5.8;;
24867;SDS011;12941;48.698;9.310;2023-08-24T04:48:31;7.7;;;5.8;;
24867;SDS011;12941;48.698;9.310;2023-08-24T04:49:31;7.7;;;5.8;;
24867;SDS011;12941;48.698;9.310;2023-08-24T04:50:36;7.7;;;5.8;;
24867;SDS011;12941;48.698;9.310;2023-08-24T04:51:41;7.7;;;5.8;;
24867;SDS011;12941;48.698;9.310;2023-08-24T04:52:41;6.3;;;5.4;;
24867;SDS011;12941;48.698;9.310;2023-08-24T04:53:46;6.3;;;5.4;;
24867;SDS011;12941;48.698;9.310;2023-08-24T04:54:51;6.3;;;5.4;;
24867;SDS011;12941;48.698;9.310;2023-08-24T04:55:56;6.3;;;5.4;;
24867;SDS011;12941;48.698;9.310;2023-08-24T04:57:01;6.3;;;5.4;;
24867;SDS011;12941;48.698;9.310;2023-08-24T04:58:01;7.9;;;5.7;;
24867;SDS011;12941;48.698;9.310;2023-08-24T04:59:01;7.9;;;5.7;;
24867;SDS011;12941;48.698;9.310;2023-08-24T05:00:01;7.9;;;5.7;;
24867;SDS011;12941;48.698;9.310;2023-08-24T05:01:01;7.9;;;5.7;;
24867;SDS011;12941;48.698;9.310;2023-08-24T05:02:01;7.9;;;5.7;;
24867;SDS011;12941;48.698;9.310;2023-08-24T05:03:07;7.8;;;5.7;;
24867;SDS011;12941;48.698;9.310;2023-08-24T05:04:11;7.8;;;5.7;;
24867;SDS011;12941;48.698;9.310;2023-08-24T05:05:16;7.8;;;5.7;;
24867;SDS011;12941;48.698;9.310;2023-08-24T05:06:21;7.8;;;5.7;;
24867;SDS011;12941;48.698;9.310;2023-08-24T05:07:21;7.4;;;6;;
24867;SDS011;12941;48.698;9.310;2023-08-24T05:08:21;7.4;;;6;;
24867;SDS011;12941;48.698;9.310;2023-08-24T05:09:26;7.4;;;6;;
24867;SDS011;12941;48.698;9.310;2023-08-24T05:10:32;7.4;;;6;;
24867;SDS011;12941;48.698;9.310;2023-08-24T05:11:31;7.4;;;6;;
24867;SDS011;12941;48.698;9.310;2023-08-24T05:12:36;6.8;;;5.9;;
24867;SDS011;12941;48.698;9.310;2023-08-24T05:13:36;6.8;;;5.9;;
24867;SDS011;12941;48.698;9.310;2023-08-24T05:14:36;6.8;;;5.9;;
24867;SDS011;12941;48.698;9.310;2023-08-24T05:15:42;6.8;;;5.9;;
24867;SDS011;12941;48.698;9.310;2023-08-24T05:16:42;6.8;;;5.9;;
24867;SDS011;12941;48.698;9.310;2023-08-24T05:17:42;6.7;;;6;;
24867;SDS011;12941;48.698;9.310;2023-08-24T05:18:42;6.7;;;6;;
24867;SDS011;12941;48.698;9.310;2023-08-24T05:19:42;6.7;;;6;;
24867;SDS011;12941;48.698;9.310;2023-08-24T05:20:47;6.7;;;6;;
24867;SDS011;12941;48.698;9.310;2023-08-24T05:21:47;6.7;;;6;;
24867;SDS011;12941;48.698;9.310;2023-08-24T05:22:52;8.5;;;6.5;;
24867;SDS011;12941;48.698;9.310;2023-08-24T05:23:57;8.5;;;6.5;;
24867;SDS011;12941;48.698;9.310;2023-08-24T05:25:02;8.5;;;6.5;;
24867;SDS011;12941;48.698;9.310;2023-08-24T05:26:02;8.5;;;6.5;;
24867;SDS011;12941;48.698;9.310;2023-08-24T05:27:02;8.5;;;6.5;;
24867;SDS011;12941;48.698;9.310;2023-08-24T05:28:07;7.2;;;5.7;;
24867;SDS011;12941;48.698;9.310;2023-08-24T05:29:07;7.2;;;5.7;;
24867;SDS011;12941;48.698;9.310;2023-08-24T05:30:12;7.2;;;5.7;;
24867;SDS011;12941;48.698;9.310;2023-08-24T05:31:17;7.2;;;5.7;;
24867;SDS011;12941;48.698;9.310;2023-08-24T05:32:22;7.2;;;5.8;;
24867;SDS011;12941;48.698;9.310;2023-08-24T05:33:27;7.2;;;5.8;;
24867;SDS011;12941;48.698;9.310;2023-08-24T05:34:28;7.2;;;5.8;;
24867;SDS011;12941;48.698;9.310;2023-08-24T05:35:32;7.2;;;5.8;;
24867;SDS011;12941;48.698;9.310;2023-08-24T05:36:37;7.2;;;5.8;;
24867;SDS011;12941;48.698;9.310;2023-08-24T05:37:42;6.8;;;6.2;;
24867;SDS011;12941;48.698;9.310;2023-08-24T05:38:47;6.8;;;6.2;;
24867;SDS011;12941;48.698;9.310;2023-08-24T05:39:47;6.8;;;6.2;;
24867;SDS011;12941;48.698;9.310;2023-08-24T05:40:52;6.8;;;6.2;;
24867;SDS011;12941;48.698;9.310;2023-08-24T05:41:52;6.8;;;6.2;;
24867;SDS011;12941;48.698;9.310;2023-08-24T05:42:57;7;;;6.3;;
24867;SDS011;12941;48.698;9.310;2023-08-24T05:43:57;7;;;6.3;;
24867;SDS011;12941;48.698;9.310;2023-08-24T05:44:57;7;;;6.3;;
24867;SDS011;12941;48.698;9.310;2023-08-24T05:46:02;7;;;6.3;;
24867;SDS011;12941;48.698;9.310;2023-08-24T05:47:07;15.9;;;7;;
24867;SDS011;12941;48.698;9.310;2023-08-24T05:48:12;16.2;;;6.9;;
24867;SDS011;12941;48.698;9.310;2023-08-24T05:49:17;16.2;;;6.9;;
24867;SDS011;12941;48.698;9.310;2023-08-24T05:50:22;16.2;;;6.9;;
24867;SDS011;12941;48.698;9.310;2023-08-24T05:51:27;16.2;;;6.9;;
24867;SDS011;12941;48.698;9.310;2023-08-24T05:52:32;11.3;;;6.3;;
24867;SDS011;12941;48.698;9.310;2023-08-24T05:53:37;11.3;;;6.3;;
24867;SDS011;12941;48.698;9.310;2023-08-24T05:54:37;11.3;;;6.3;;
24867;SDS011;12941;48.698;9.310;2023-08-24T05:55:42;11.3;;;6.3;;
24867;SDS011;12941;48.698;9.310;2023-08-24T05:56:47;11.3;;;6.3;;
24867;SDS011;12941;48.698;9.310;2023-08-24T05:57:52;11.5;;;6.6;;
24867;SDS011;12941;48.698;9.310;2023-08-24T05:58:53;11.5;;;6.6;;
24867;SDS011;12941;48.698;9.310;2023-08-24T05:59:57;11.5;;;6.6;;
24867;SDS011;12941;48.698;9.310;2023-08-24T06:00:57;11.5;;;6.6;;
24867;SDS011;12941;48.698;9.310;2023-08-24T06:02:02;11.5;;;6.6;;
24867;SDS011;12941;48.698;9.310;2023-08-24T06:03:02;7.7;;;6;;
24867;SDS011;12941;48.698;9.310;2023-08-24T06:04:02;7.7;;;6;;
24867;SDS011;12941;48.698;9.310;2023-08-24T06:05:07;7.7;;;6;;
24867;SDS011;12941;48.698;9.310;2023-08-24T06:06:12;7.7;;;6;;
24867;SDS011;12941;48.698;9.310;2023-08-24T06:07:12;8.1;;;5.9;;
24867;SDS011;12941;48.698;9.310;2023-08-24T06:08:17;8.1;;;5.9;;
24867;SDS011;12941;48.698;9.310;2023-08-24T06:09:17;8.1;;;5.9;;
24867;SDS011;12941;48.698;9.310;2023-08-24T06:10:22;8.1;;;5.9;;
24867;SDS011;12941;48.698;9.310;2023-08-24T06:11:22;8.1;;;5.9;;
24867;SDS011;12941;48.698;9.310;2023-08-24T06:12:27;6.8;;;6.1;;
24867;SDS011;12941;48.698;9.310;2023-08-24T06:13:32;6.8;;;6.1;;
24867;SDS011;12941;48.698;9.310;2023-08-24T06:14:32;6.8;;;6.1;;
24867;SDS011;12941;48.698;9.310;2023-08-24T06:15:37;6.8;;;6.1;;
24867;SDS011;12941;48.698;9.310;2023-08-24T06:16:42;6.8;;;6.1;;
24867;SDS011;12941;48.698;9.310;2023-08-24T06:17:47;10.7;;;6.2;;
24867;SDS011;12941;48.698;9.310;2023-08-24T06:18:47;10.7;;;6.2;;
24867;SDS011;12941;48.698;9.310;2023-08-24T06:19:47;10.7;;;6.2;;
24867;SDS011;12941;48.698;9.310;2023-08-24T06:20:52;10.7;;;6.2;;
24867;SDS011;12941;48.698;9.310;2023-08-24T06:21:57;10.7;;;6.2;;
24867;SDS011;12941;48.698;9.310;2023-08-24T06:23:02;7.6;;;6.4;;
24867;SDS011;12941;48.698;9.310;2023-08-24T06:24:02;7.6;;;6.4;;
24867;SDS011;12941;48.698;9.310;2023-08-24T06:25:02;7.6;;;6.4;;
24867;SDS011;12941;48.698;9.310;2023-08-24T06:26:07;7.6;;;6.4;;
24867;SDS011;12941;48.698;9.310;2023-08-24T06:27:11;6.6;;;5.9;;
24867;SDS011;12941;48.698;9.310;2023-08-24T06:28:12;6.6;;;5.9;;
24867;SDS011;12941;48.698;9.310;2023-08-24T06:29:17;6.6;;;5.9;;
24867;SDS011;12941;48.698;9.310;2023-08-24T06:30:22;6.6;;;5.9;;
24867;SDS011;12941;48.698;9.310;2023-08-24T06:31:27;6.6;;;5.9;;